createdAt,value
2022-10-11T00:00:42.607Z,49.01
2022-10-11T00:03:10.362Z,49.01
2022-10-11T00:05:37.184Z,49.01
2022-10-11T00:08:03.601Z,48.96
2022-10-11T00:10:30.006Z,48.97
2022-10-11T00:12:56.472Z,48.96
2022-10-11T00:15:22.834Z,48.84
2022-10-11T00:17:49.729Z,48.87
2022-10-11T00:20:17.756Z,48.91
2022-10-11T00:22:44.424Z,49.01
2022-10-11T00:25:11.358Z,48.88
2022-10-11T00:27:38.122Z,48.71
2022-10-11T00:30:05.373Z,48.56
2022-10-11T00:32:32.936Z,48.57
2022-10-11T00:34:59.293Z,48.56
2022-10-11T00:37:26.949Z,48.50
2022-10-11T00:39:54.158Z,48.44
2022-10-11T00:42:20.578Z,48.32
2022-10-11T00:44:48.581Z,48.30
2022-10-11T00:47:16.845Z,48.23
2022-10-11T00:49:45.416Z,48.13
2022-10-11T00:52:14.865Z,48.11
2022-10-11T00:54:44.997Z,48.21
2022-10-11T00:57:13.516Z,48.29
2022-10-11T00:59:41.670Z,48.15
2022-10-11T01:02:08.645Z,47.97
2022-10-11T01:04:35.127Z,47.94
2022-10-11T01:07:01.631Z,47.85
2022-10-11T01:09:28.307Z,47.75
2022-10-11T01:11:58.177Z,47.74
2022-10-11T01:14:38.959Z,47.53
2022-10-11T01:17:10.630Z,47.36
2022-10-11T01:19:51.810Z,47.54
2022-10-11T01:22:28.698Z,47.31
2022-10-11T01:25:03.781Z,47.31
2022-10-11T01:27:36.881Z,47.37
2022-10-11T01:30:07.398Z,47.15
2022-10-11T01:32:38.509Z,47.34
2022-10-11T01:35:08.905Z,47.11
2022-10-11T01:37:36.968Z,47.00
2022-10-11T01:40:06.023Z,46.98
2022-10-11T01:42:32.763Z,46.96
2022-10-11T01:44:59.597Z,46.80
2022-10-11T01:47:26.224Z,46.90
2022-10-11T01:49:54.960Z,46.70
2022-10-11T01:52:21.393Z,46.45
2022-10-11T01:55:09.217Z,46.68
2022-10-11T01:57:44.268Z,46.59
2022-10-11T02:00:13.944Z,46.57
2022-10-11T02:02:48.635Z,46.45
2022-10-11T02:05:20.537Z,46.36
2022-10-11T02:07:50.992Z,46.27
2022-10-11T02:10:21.070Z,46.40
2022-10-11T02:12:51.647Z,46.14
2022-10-11T02:15:19.061Z,46.16
2022-10-11T02:17:47.735Z,45.99
2022-10-11T02:20:17.926Z,45.80
2022-10-11T02:22:46.456Z,45.73
2022-10-11T02:25:17.173Z,45.73
2022-10-11T02:27:45.379Z,45.74
2022-10-11T02:30:12.311Z,45.71
2022-10-11T02:32:39.980Z,45.59
2022-10-11T02:35:06.906Z,45.48
2022-10-11T02:37:42.733Z,45.56
2022-10-11T02:40:12.588Z,45.48
2022-10-11T02:42:41.303Z,45.25
2022-10-11T02:45:10.957Z,45.11
2022-10-11T02:47:37.969Z,45.15
2022-10-11T02:50:05.222Z,45.26
2022-10-11T02:52:31.556Z,45.20
2022-10-11T02:54:57.984Z,45.12
2022-10-11T02:57:25.665Z,44.98
2022-10-11T02:59:51.997Z,44.85
2022-10-11T03:02:18.351Z,44.80
2022-10-11T03:04:44.880Z,44.74
2022-10-11T03:07:11.210Z,44.78
2022-10-11T03:09:37.678Z,44.76
2022-10-11T03:12:04.158Z,44.76
2022-10-11T03:14:33.739Z,44.65
2022-10-11T03:17:17.274Z,44.60
2022-10-11T03:19:46.674Z,44.53
2022-10-11T03:22:13.212Z,44.32
2022-10-11T03:24:39.671Z,44.50
2022-10-11T03:27:06.193Z,44.40
2022-10-11T03:29:33.836Z,44.21
2022-10-11T03:32:00.196Z,44.14
2022-10-11T03:34:26.621Z,44.14
2022-10-11T03:36:52.949Z,44.25
2022-10-11T03:39:19.411Z,44.15
2022-10-11T03:41:45.949Z,44.19
2022-10-11T03:44:12.366Z,44.04
2022-10-11T03:46:40.073Z,43.97
2022-10-11T03:49:06.418Z,43.93
2022-10-11T03:51:32.726Z,44.09
2022-10-11T03:53:59.232Z,43.74
2022-10-11T03:56:25.614Z,43.92
2022-10-11T03:58:51.972Z,43.66
2022-10-11T04:01:18.745Z,43.72
2022-10-11T04:03:46.437Z,43.65
2022-10-11T04:06:12.805Z,43.92
2022-10-11T04:08:39.144Z,43.77
2022-10-11T04:11:05.640Z,43.88
2022-10-11T04:13:32.247Z,43.49
2022-10-11T04:15:58.720Z,43.54
2022-10-11T04:18:25.051Z,43.51
2022-10-11T04:20:52.708Z,43.24
2022-10-11T04:23:19.060Z,43.07
2022-10-11T04:25:45.407Z,43.25
2022-10-11T04:28:12.042Z,43.18
2022-10-11T04:30:38.433Z,43.03
2022-10-11T04:33:04.808Z,43.11
2022-10-11T04:35:31.131Z,43.00
2022-10-11T04:37:58.802Z,43.00
2022-10-11T04:40:25.136Z,42.73
2022-10-11T04:42:51.465Z,42.73
2022-10-11T04:45:18.006Z,42.58
2022-10-11T04:47:44.319Z,42.64
2022-10-11T04:50:10.731Z,42.59
2022-10-11T04:52:37.111Z,42.61
2022-10-11T04:55:05.122Z,42.56
2022-10-11T04:57:31.656Z,42.57
2022-10-11T04:59:58.080Z,42.57
2022-10-11T05:02:24.461Z,43.13
2022-10-11T05:04:50.853Z,43.35
2022-10-11T05:07:17.352Z,47.94
2022-10-11T05:09:43.773Z,44.66
2022-10-11T05:12:11.525Z,44.23
2022-10-11T05:14:37.936Z,43.62
2022-10-11T05:17:04.582Z,43.39
2022-10-11T05:19:31.110Z,43.46
2022-10-11T05:21:57.558Z,43.54
2022-10-11T05:24:23.890Z,43.50
2022-10-11T05:26:50.701Z,43.60
2022-10-11T05:29:18.365Z,43.83
2022-10-11T05:31:44.713Z,44.07
2022-10-11T05:34:11.106Z,43.83
2022-10-11T05:36:37.491Z,43.91
2022-10-11T05:39:03.825Z,43.82
2022-10-11T05:41:30.217Z,44.16
2022-10-11T05:43:56.558Z,44.40
2022-10-11T05:46:24.230Z,44.56
2022-10-11T05:48:50.812Z,44.34
2022-10-11T05:51:17.184Z,44.44
2022-10-11T05:53:43.532Z,44.43
2022-10-11T05:56:18.299Z,44.48
2022-10-11T05:58:44.607Z,44.44
2022-10-11T06:01:15.845Z,44.55
2022-10-11T06:03:43.532Z,44.43
2022-10-11T06:06:10.622Z,44.49
2022-10-11T06:08:37.244Z,44.61
2022-10-11T06:11:12.061Z,44.47
2022-10-11T06:13:38.555Z,44.52
2022-10-11T06:16:05.613Z,44.44
2022-10-11T06:18:32.093Z,44.39
2022-10-11T06:21:00.408Z,44.59
2022-10-11T06:23:27.163Z,44.71
2022-10-11T06:25:57.017Z,44.76
2022-10-11T06:28:23.419Z,44.61
2022-10-11T06:30:49.784Z,44.67
2022-10-11T06:33:16.198Z,44.23
2022-10-11T06:35:42.576Z,44.24
2022-10-11T06:38:10.204Z,44.63
2022-10-11T06:40:36.610Z,44.66
2022-10-11T06:43:03.183Z,44.26
2022-10-11T06:45:29.565Z,44.30
2022-10-11T06:47:55.896Z,44.21
2022-10-11T06:50:40.633Z,44.11
2022-10-11T06:53:10.220Z,44.01
2022-10-11T06:55:36.587Z,43.96
2022-10-11T06:58:03.043Z,44.00
2022-10-11T07:00:30.032Z,43.95
2022-10-11T07:02:56.453Z,44.57
2022-10-11T07:05:23.146Z,44.53
2022-10-11T07:07:49.514Z,44.64
2022-10-11T07:10:17.192Z,44.69
2022-10-11T07:12:43.983Z,44.53
2022-10-11T07:15:10.538Z,44.59
2022-10-11T07:17:36.923Z,44.40
2022-10-11T07:20:03.557Z,44.62
2022-10-11T07:22:30.055Z,44.34
2022-10-11T07:24:57.018Z,44.27
2022-10-11T07:27:24.725Z,43.78
2022-10-11T07:29:51.211Z,43.91
2022-10-11T07:32:17.601Z,43.63
2022-10-11T07:34:44.091Z,43.61
2022-10-11T07:37:10.475Z,43.66
2022-10-11T07:39:36.920Z,43.40
2022-10-11T07:42:03.336Z,43.77
2022-10-11T07:44:31.155Z,43.91
2022-10-11T07:46:57.536Z,43.74
2022-10-11T07:49:24.018Z,43.50
2022-10-11T07:51:50.382Z,43.49
2022-10-11T07:54:16.702Z,43.59
2022-10-11T07:56:43.295Z,43.77
2022-10-11T07:59:10.585Z,43.81
2022-10-11T08:01:38.328Z,43.68
2022-10-11T08:04:04.904Z,43.86
2022-10-11T08:06:31.250Z,43.82
2022-10-11T08:08:58.430Z,43.98
2022-10-11T08:11:25.565Z,43.94
2022-10-11T08:13:52.164Z,43.57
2022-10-11T08:16:19.002Z,43.92
2022-10-11T08:18:46.791Z,43.97
2022-10-11T08:21:14.504Z,44.43
2022-10-11T08:23:40.873Z,45.11
2022-10-11T08:26:07.868Z,44.68
2022-10-11T08:28:34.905Z,44.37
2022-10-11T08:31:01.614Z,44.24
2022-10-11T08:33:28.174Z,44.30
2022-10-11T08:35:55.832Z,44.26
2022-10-11T08:38:22.247Z,44.49
2022-10-11T08:40:50.282Z,44.49
2022-10-11T08:43:27.087Z,44.75
2022-10-11T08:45:55.899Z,44.93
2022-10-11T08:48:33.226Z,44.98
2022-10-11T08:51:01.115Z,45.10
2022-10-11T08:53:32.200Z,45.15
2022-10-11T08:55:58.704Z,45.26
2022-10-11T08:58:30.010Z,45.24
2022-10-11T09:00:57.607Z,45.39
2022-10-11T09:03:29.644Z,45.72
2022-10-11T09:06:02.055Z,46.06
2022-10-11T09:08:33.162Z,45.84
2022-10-11T09:11:03.384Z,45.74
2022-10-11T09:13:39.209Z,45.51
2022-10-11T09:16:13.077Z,45.50
2022-10-11T09:18:48.713Z,45.56
2022-10-11T09:21:19.764Z,45.79
2022-10-11T09:23:55.003Z,45.63
2022-10-11T09:26:25.525Z,45.62
2022-10-11T09:29:01.125Z,45.54
2022-10-11T09:31:28.245Z,45.60
2022-10-11T09:33:55.625Z,45.46
2022-10-11T09:36:25.802Z,45.41
2022-10-11T09:38:56.299Z,45.51
2022-10-11T09:41:25.324Z,45.60
2022-10-11T09:43:52.560Z,45.49
2022-10-11T09:46:20.925Z,45.61
2022-10-11T09:48:47.346Z,45.95
2022-10-11T09:51:15.272Z,45.86
2022-10-11T09:53:52.625Z,45.76
2022-10-11T09:56:21.097Z,45.61
2022-10-11T09:58:47.742Z,45.62
2022-10-11T10:01:22.535Z,45.71
2022-10-11T10:04:03.005Z,45.73
2022-10-11T10:06:29.412Z,45.69
2022-10-11T10:09:16.246Z,45.63
2022-10-11T10:11:44.028Z,45.61
2022-10-11T10:14:18.158Z,45.66
2022-10-11T10:16:44.601Z,46.01
2022-10-11T10:19:17.060Z,45.82
2022-10-11T10:21:45.502Z,45.91
2022-10-11T10:24:18.452Z,45.96
2022-10-11T10:27:04.751Z,46.01
2022-10-11T10:29:31.484Z,45.91
2022-10-11T10:32:14.961Z,45.75
2022-10-11T10:34:52.754Z,45.94
2022-10-11T10:37:22.640Z,45.91
2022-10-11T10:39:52.607Z,45.89
2022-10-11T10:42:21.116Z,45.99
2022-10-11T10:44:50.975Z,46.16
2022-10-11T10:47:20.976Z,46.13
2022-10-11T10:49:54.669Z,46.39
2022-10-11T10:52:32.025Z,46.51
2022-10-11T10:55:02.492Z,46.43
2022-10-11T10:57:36.464Z,46.56
2022-10-11T11:00:06.155Z,46.60
2022-10-11T11:02:40.783Z,46.53
2022-10-11T11:05:13.964Z,46.74
2022-10-11T11:07:43.597Z,45.84
2022-10-11T11:10:13.122Z,45.55
2022-10-11T11:12:44.578Z,46.01
2022-10-11T11:15:14.945Z,45.72
2022-10-11T11:17:47.625Z,45.72
2022-10-11T11:20:21.438Z,45.88
2022-10-11T11:22:52.289Z,45.63
2022-10-11T11:25:27.212Z,45.79
2022-10-11T11:28:02.311Z,45.98
2022-10-11T11:30:34.674Z,45.49
2022-10-11T11:33:06.332Z,44.21
2022-10-11T11:35:36.764Z,43.61
2022-10-11T11:38:06.610Z,43.47
2022-10-11T11:40:35.167Z,43.46
2022-10-11T11:43:04.391Z,43.93
2022-10-11T11:45:33.270Z,43.77
2022-10-11T11:48:02.471Z,43.77
2022-10-11T11:50:31.564Z,43.74
2022-10-11T11:53:02.713Z,43.65
2022-10-11T11:55:30.982Z,44.01
2022-10-11T11:58:03.282Z,44.54
2022-10-11T12:00:38.611Z,45.31
2022-10-11T12:03:09.423Z,45.15
2022-10-11T12:05:36.188Z,44.85
2022-10-11T12:08:04.531Z,44.96
2022-10-11T12:10:33.938Z,45.30
2022-10-11T12:13:05.915Z,45.84
2022-10-11T12:15:33.968Z,45.73
2022-10-11T12:18:02.960Z,45.76
2022-10-11T12:20:29.936Z,45.78
2022-10-11T12:22:57.798Z,46.09
2022-10-11T12:25:30.643Z,46.50
2022-10-11T12:27:58.154Z,46.87
2022-10-11T12:30:39.346Z,46.85
2022-10-11T12:33:13.651Z,47.88
2022-10-11T12:35:50.340Z,48.21
2022-10-11T12:38:20.119Z,47.76
2022-10-11T12:40:47.396Z,47.68
2022-10-11T12:43:28.585Z,47.69
2022-10-11T12:45:54.957Z,47.67
2022-10-11T12:48:36.020Z,47.94
2022-10-11T12:51:16.907Z,48.16
2022-10-11T12:54:14.448Z,48.28
2022-10-11T12:56:45.600Z,48.36
2022-10-11T12:59:15.775Z,48.46
2022-10-11T13:01:47.871Z,48.05
2022-10-11T13:04:17.004Z,47.47
2022-10-11T13:06:45.558Z,47.34
2022-10-11T13:09:17.868Z,47.48
2022-10-11T13:11:46.396Z,47.71
2022-10-11T13:14:15.467Z,47.98
2022-10-11T13:16:45.492Z,48.12
2022-10-11T13:19:13.573Z,48.04
2022-10-11T13:21:41.312Z,48.48
2022-10-11T13:24:11.589Z,47.75
2022-10-11T13:26:38.236Z,47.80
2022-10-11T13:29:11.000Z,48.13
2022-10-11T13:31:39.789Z,48.22
2022-10-11T13:34:06.218Z,48.27
2022-10-11T13:36:34.904Z,47.85
2022-10-11T13:39:02.594Z,47.76
2022-10-11T13:41:30.278Z,47.80
2022-10-11T13:43:58.119Z,47.07
2022-10-11T13:46:25.557Z,47.50
2022-10-11T13:49:00.003Z,47.25
2022-10-11T13:51:28.594Z,47.56
2022-10-11T13:53:56.492Z,47.67
2022-10-11T13:56:24.404Z,47.30
2022-10-11T13:58:53.008Z,47.21
2022-10-11T14:01:20.549Z,47.67
2022-10-11T14:03:48.864Z,47.59
2022-10-11T14:06:15.209Z,47.71
2022-10-11T14:08:44.442Z,47.60
2022-10-11T14:11:11.887Z,47.50
2022-10-11T14:13:40.324Z,47.23
2022-10-11T14:16:07.981Z,46.64
2022-10-11T14:18:38.516Z,46.73
2022-10-11T14:21:19.758Z,46.90
2022-10-11T14:23:46.542Z,47.07
2022-10-11T14:26:18.360Z,46.14
2022-10-11T14:28:48.876Z,46.06
2022-10-11T14:31:15.365Z,46.46
2022-10-11T14:33:41.695Z,47.52
2022-10-11T14:36:08.681Z,46.79
2022-10-11T14:38:35.178Z,46.17
2022-10-11T14:41:01.553Z,46.69
2022-10-11T14:43:27.996Z,46.68
2022-10-11T14:45:55.895Z,46.81
2022-10-11T14:48:53.610Z,46.73
2022-10-11T14:51:12.764Z,46.53
2022-10-11T14:53:40.991Z,46.41
2022-10-11T14:56:07.837Z,46.74
2022-10-11T14:58:34.382Z,46.46
2022-10-11T15:01:02.017Z,44.98
2022-10-11T15:03:28.346Z,45.27
2022-10-11T15:05:55.627Z,45.01
2022-10-11T15:08:21.999Z,44.46
2022-10-11T15:10:48.332Z,45.03
2022-10-11T15:13:14.723Z,45.08
2022-10-11T15:15:41.109Z,45.28
2022-10-11T15:18:11.400Z,45.18
2022-10-11T15:20:38.991Z,45.15
2022-10-11T15:23:06.073Z,45.41
2022-10-11T15:25:32.431Z,45.44
2022-10-11T15:27:58.994Z,45.46
2022-10-11T15:30:26.247Z,45.42
2022-10-11T15:32:53.255Z,45.44
2022-10-11T15:35:21.200Z,45.55
2022-10-11T15:37:47.542Z,45.55
2022-10-11T15:40:15.690Z,45.70
2022-10-11T15:42:42.056Z,45.90
2022-10-11T15:45:09.085Z,45.85
2022-10-11T15:47:35.684Z,45.88
2022-10-11T15:50:02.139Z,45.69
2022-10-11T15:52:29.761Z,45.73
2022-10-11T15:54:56.097Z,45.83
2022-10-11T15:57:22.495Z,45.83
2022-10-11T15:59:48.827Z,45.95
2022-10-11T16:02:15.158Z,46.07
2022-10-11T16:04:41.585Z,46.00
2022-10-11T16:07:07.929Z,45.69
2022-10-11T16:09:35.656Z,45.80
2022-10-11T16:12:02.030Z,45.74
2022-10-11T16:14:28.338Z,45.91
2022-10-11T16:16:54.795Z,46.03
2022-10-11T16:19:21.210Z,46.21
2022-10-11T16:21:47.846Z,46.26
2022-10-11T16:24:14.187Z,45.97
2022-10-11T16:26:41.892Z,46.01
2022-10-11T16:29:08.268Z,46.13
2022-10-11T16:31:34.622Z,45.99
2022-10-11T16:34:01.035Z,46.09
2022-10-11T16:36:27.431Z,46.04
2022-10-11T16:38:53.891Z,46.45
2022-10-11T16:41:20.256Z,46.21
2022-10-11T16:43:51.331Z,46.17
2022-10-11T16:46:17.704Z,46.15
2022-10-11T16:48:44.196Z,46.15
2022-10-11T16:51:10.631Z,46.30
2022-10-11T16:53:37.184Z,45.94
2022-10-11T16:56:04.883Z,46.29
2022-10-11T16:58:31.415Z,46.41
2022-10-11T17:00:59.071Z,46.38
2022-10-11T17:03:25.492Z,46.36
2022-10-11T17:05:51.909Z,46.35
2022-10-11T17:08:18.262Z,46.27
2022-10-11T17:10:44.732Z,46.33
2022-10-11T17:13:11.072Z,46.38
2022-10-11T17:15:37.500Z,46.65
2022-10-11T17:18:05.547Z,46.51
2022-10-11T17:20:32.170Z,46.54
2022-10-11T17:22:58.546Z,46.60
2022-10-11T17:25:24.988Z,46.57
2022-10-11T17:27:51.363Z,46.46
2022-10-11T17:30:17.752Z,46.58
2022-10-11T17:32:44.126Z,46.58
2022-10-11T17:35:11.765Z,46.68
2022-10-11T17:37:38.107Z,46.71
2022-10-11T17:40:04.749Z,46.70
2022-10-11T17:42:31.152Z,46.69
2022-10-11T17:44:57.502Z,46.57
2022-10-11T17:47:23.843Z,46.48
2022-10-11T17:49:50.187Z,46.54
2022-10-11T17:52:17.946Z,46.58
2022-10-11T17:54:44.365Z,46.65
2022-10-11T17:57:10.879Z,46.63
2022-10-11T17:59:37.221Z,46.53
2022-10-11T18:02:03.562Z,46.53
2022-10-11T18:04:29.944Z,46.61
2022-10-11T18:06:56.313Z,46.59
2022-10-11T18:09:23.996Z,46.54
2022-10-11T18:11:50.828Z,46.54
2022-10-11T18:14:17.385Z,46.60
2022-10-11T18:16:43.780Z,46.51
2022-10-11T18:19:11.349Z,46.74
2022-10-11T18:21:38.193Z,46.66
2022-10-11T18:24:06.220Z,46.55
2022-10-11T18:26:33.979Z,46.51
2022-10-11T18:29:00.424Z,46.68
2022-10-11T18:31:27.816Z,46.47
2022-10-11T18:33:54.761Z,46.67
2022-10-11T18:36:22.115Z,46.46
2022-10-11T18:38:52.083Z,46.58
2022-10-11T18:41:19.410Z,46.78
2022-10-11T18:43:49.850Z,46.75
2022-10-11T18:46:16.302Z,46.51
2022-10-11T18:48:43.350Z,46.43
2022-10-11T18:51:10.331Z,46.54
2022-10-11T18:53:36.850Z,46.58
2022-10-11T18:56:05.750Z,46.51
2022-10-11T18:58:34.017Z,46.62
2022-10-11T19:01:05.425Z,46.44
2022-10-11T19:03:35.152Z,46.66
2022-10-11T19:06:02.277Z,46.67
2022-10-11T19:08:28.624Z,46.64
2022-10-11T19:10:54.979Z,46.44
2022-10-11T19:13:21.324Z,46.52
2022-10-11T19:15:47.664Z,46.61
2022-10-11T19:18:20.226Z,46.50
2022-10-11T19:20:46.858Z,46.59
2022-10-11T19:23:13.190Z,46.59
2022-10-11T19:25:39.561Z,46.56
2022-10-11T19:28:05.994Z,46.65
2022-10-11T19:30:32.325Z,46.53
2022-10-11T19:32:58.792Z,46.45
2022-10-11T19:35:26.420Z,46.31
2022-10-11T19:37:52.805Z,46.46
2022-10-11T19:40:19.228Z,46.33
2022-10-11T19:42:45.581Z,46.45
2022-10-11T19:45:11.921Z,46.38
2022-10-11T19:47:38.254Z,46.41
2022-10-11T19:50:04.882Z,46.53
2022-10-11T19:52:32.866Z,46.49
2022-10-11T19:54:59.410Z,46.42
2022-10-11T19:57:25.758Z,46.24
2022-10-11T19:59:52.218Z,46.44
2022-10-11T20:02:18.572Z,46.31
2022-10-11T20:04:52.524Z,46.29
2022-10-11T20:07:19.297Z,46.29
2022-10-11T20:09:46.975Z,46.34
2022-10-11T20:12:13.290Z,46.28
2022-10-11T20:14:39.635Z,46.27
2022-10-11T20:17:06.126Z,46.29
2022-10-11T20:19:32.485Z,46.30
2022-10-11T20:21:59.021Z,46.19
2022-10-11T20:24:25.350Z,46.15
2022-10-11T20:26:53.014Z,46.23
2022-10-11T20:29:19.391Z,46.10
2022-10-11T20:31:45.803Z,46.24
2022-10-11T20:34:12.118Z,46.17
2022-10-11T20:36:38.598Z,46.47
2022-10-11T20:39:05.185Z,46.17
2022-10-11T20:41:32.173Z,45.79
2022-10-11T20:44:00.915Z,46.08
2022-10-11T20:46:28.264Z,46.17
2022-10-11T20:49:00.409Z,46.21
2022-10-11T20:51:28.194Z,46.14
2022-10-11T20:53:54.532Z,46.24
2022-10-11T20:56:21.717Z,46.21
2022-10-11T20:58:50.147Z,46.19
2022-10-11T21:01:18.527Z,46.39
2022-10-11T21:03:45.126Z,46.22
2022-10-11T21:06:11.868Z,46.29
2022-10-11T21:08:39.115Z,46.10
2022-10-11T21:11:06.108Z,46.09
2022-10-11T21:13:32.508Z,46.20
2022-10-11T21:16:02.801Z,46.26
2022-10-11T21:18:30.460Z,46.29
2022-10-11T21:20:56.812Z,46.13
2022-10-11T21:23:23.144Z,46.02
2022-10-11T21:25:49.477Z,46.06
2022-10-11T21:28:15.893Z,46.10
2022-10-11T21:30:42.275Z,46.01
2022-10-11T21:33:08.609Z,46.08
2022-10-11T21:35:38.380Z,46.00
2022-10-11T21:38:04.702Z,45.96
2022-10-11T21:40:31.136Z,45.98
2022-10-11T21:42:57.508Z,45.91
2022-10-11T21:45:23.876Z,45.99
2022-10-11T21:47:50.206Z,46.01
2022-10-11T21:50:16.529Z,45.92
2022-10-11T21:52:44.192Z,45.63
2022-10-11T21:55:10.554Z,45.75
2022-10-11T21:57:36.931Z,45.82
2022-10-11T22:00:04.835Z,45.77
2022-10-11T22:02:31.167Z,45.73
2022-10-11T22:04:57.560Z,45.69
2022-10-11T22:07:23.995Z,45.85
2022-10-11T22:09:51.681Z,45.93
2022-10-11T22:12:18.132Z,45.75
2022-10-11T22:14:44.541Z,45.71
2022-10-11T22:17:10.854Z,45.58
2022-10-11T22:19:37.208Z,45.69
2022-10-11T22:22:03.570Z,45.70
2022-10-11T22:24:29.913Z,45.75
2022-10-11T22:26:57.603Z,45.65
2022-10-11T22:29:23.952Z,45.78
2022-10-11T22:31:50.294Z,45.65
2022-10-11T22:34:16.711Z,45.62
2022-10-11T22:36:43.077Z,45.53
2022-10-11T22:39:09.485Z,45.59
2022-10-11T22:41:35.855Z,45.46
2022-10-11T22:44:04.188Z,45.46
2022-10-11T22:46:30.540Z,45.53
2022-10-11T22:48:56.984Z,45.36
2022-10-11T22:51:23.380Z,45.39
2022-10-11T22:53:49.718Z,45.49
2022-10-11T22:56:16.066Z,45.35
2022-10-11T22:58:42.391Z,45.35
2022-10-11T23:01:10.744Z,45.38
2022-10-11T23:03:37.476Z,45.33
2022-10-11T23:06:04.034Z,45.33
2022-10-11T23:08:30.451Z,45.46
2022-10-11T23:10:56.905Z,45.32
2022-10-11T23:13:23.268Z,45.26
2022-10-11T23:15:49.697Z,45.44
2022-10-11T23:18:17.350Z,45.31
2022-10-11T23:20:44.088Z,45.17
2022-10-11T23:23:10.480Z,45.21
2022-10-11T23:25:36.844Z,45.28
2022-10-11T23:28:03.243Z,45.19
2022-10-11T23:30:29.947Z,45.21
2022-10-11T23:32:56.625Z,45.12
2022-10-11T23:35:24.341Z,45.04
2022-10-11T23:37:52.670Z,45.10
2022-10-11T23:40:19.081Z,45.11
2022-10-11T23:42:45.494Z,45.05
2022-10-11T23:45:11.872Z,45.09
2022-10-11T23:47:38.531Z,45.02
2022-10-11T23:50:05.547Z,45.00
2022-10-11T23:52:33.201Z,45.06
2022-10-11T23:54:59.552Z,45.22
2022-10-11T23:57:25.868Z,45.01
2022-10-11T23:59:52.193Z,44.88
